Terminal Aerodrome Forecast
Issued by NWS Flagstaff, AZ

Home | Current Version | Previous Version | Text Only | Print | Product List | Glossary On
Versions: 1 2 3 4 5 6 7 8 9 10 11 12 13 14 15 16 17 18
000
FTUS45 KFGZ 221140
TAFFLG
TAF
KFLG 221140Z 2212/2312 VRB04KT P6SM SCT070 BKN090
     FM221800 03007KT P6SM FEW050 BKN090
      TEMPO 2219/2223 VRB10G20KT 4SM TSRA BKN045CB
     FM230100 VRB05KT P6SM BKN080=

USA.gov is the U.S. government's official web portal to all federal, state and local government web resources and services.